sensor_id;sensor_type;location;lat;lon;timestamp;pressure;altitude;pressure_sealevel;temperature;humidity
11830;BME280;5972;42.134;24.718;2023-12-20T00:01:57;100129.69;;;3.40;100.00
11830;BME280;5972;42.134;24.718;2023-12-20T00:04:24;100123.66;;;3.53;100.00
11830;BME280;5972;42.134;24.718;2023-12-20T00:06:51;100114.31;;;3.21;100.00
11830;BME280;5972;42.134;24.718;2023-12-20T00:09:18;100107.53;;;3.29;100.00
11830;BME280;5972;42.134;24.718;2023-12-20T00:11:45;100127.94;;;3.54;100.00
11830;BME280;5972;42.134;24.718;2023-12-20T00:14:12;100128.91;;;3.63;100.00
11830;BME280;5972;42.134;24.718;2023-12-20T00:16:39;100121.97;;;3.62;100.00
11830;BME280;5972;42.134;24.718;2023-12-20T00:19:07;100128.63;;;3.64;100.00
11830;BME280;5972;42.134;24.718;2023-12-20T00:21:34;100124.13;;;3.60;100.00
11830;BME280;5972;42.134;24.718;2023-12-20T00:24:01;100126.34;;;3.53;100.00
11830;BME280;5972;42.134;24.718;2023-12-20T00:26:28;100129.53;;;3.55;100.00
11830;BME280;5972;42.134;24.718;2023-12-20T00:28:55;100116.75;;;3.47;100.00
11830;BME280;5972;42.134;24.718;2023-12-20T00:31:22;100118.84;;;3.55;100.00
11830;BME280;5972;42.134;24.718;2023-12-20T00:33:49;100115.88;;;3.56;100.00
11830;BME280;5972;42.134;24.718;2023-12-20T00:36:18;100100.97;;;3.50;100.00
11830;BME280;5972;42.134;24.718;2023-12-20T00:38:45;100080.44;;;3.41;100.00
11830;BME280;5972;42.134;24.718;2023-12-20T00:41:12;100093.91;;;3.59;100.00
11830;BME280;5972;42.134;24.718;2023-12-20T00:43:39;100093.09;;;3.59;100.00
11830;BME280;5972;42.134;24.718;2023-12-20T00:46:06;100094.47;;;3.56;100.00
11830;BME280;5972;42.134;24.718;2023-12-20T00:48:32;100086.44;;;3.56;100.00
11830;BME280;5972;42.134;24.718;2023-12-20T00:50:59;100078.84;;;3.63;100.00
11830;BME280;5972;42.134;24.718;2023-12-20T00:53:28;100084.00;;;3.60;100.00
11830;BME280;5972;42.134;24.718;2023-12-20T00:55:55;100080.31;;;3.56;100.00
11830;BME280;5972;42.134;24.718;2023-12-20T00:58:24;100086.16;;;3.58;100.00
11830;BME280;5972;42.134;24.718;2023-12-20T01:00:52;100078.91;;;3.58;100.00
11830;BME280;5972;42.134;24.718;2023-12-20T01:03:19;100069.94;;;3.49;100.00
11830;BME280;5972;42.134;24.718;2023-12-20T01:05:46;100070.03;;;3.39;100.00
11830;BME280;5972;42.134;24.718;2023-12-20T01:08:13;100068.44;;;3.38;100.00
11830;BME280;5972;42.134;24.718;2023-12-20T01:10:41;100056.94;;;3.38;100.00
11830;BME280;5972;42.134;24.718;2023-12-20T01:13:08;100064.16;;;3.37;100.00
11830;BME280;5972;42.134;24.718;2023-12-20T01:15:35;100057.25;;;3.31;100.00
11830;BME280;5972;42.134;24.718;2023-12-20T01:18:01;100056.50;;;3.25;100.00
11830;BME280;5972;42.134;24.718;2023-12-20T01:20:28;100012.44;;;2.94;100.00
11830;BME280;5972;42.134;24.718;2023-12-20T01:22:55;100041.59;;;3.19;100.00
11830;BME280;5972;42.134;24.718;2023-12-20T01:25:22;100029.13;;;3.10;100.00
11830;BME280;5972;42.134;24.718;2023-12-20T01:27:50;100038.44;;;3.12;100.00
11830;BME280;5972;42.134;24.718;2023-12-20T01:30:17;100035.28;;;3.10;100.00
11830;BME280;5972;42.134;24.718;2023-12-20T01:32:44;100032.34;;;3.07;100.00
11830;BME280;5972;42.134;24.718;2023-12-20T01:35:11;100034.47;;;3.10;100.00
11830;BME280;5972;42.134;24.718;2023-12-20T01:37:39;100028.06;;;3.11;100.00
11830;BME280;5972;42.134;24.718;2023-12-20T01:42:59;100026.50;;;3.05;100.00
11830;BME280;5972;42.134;24.718;2023-12-20T01:45:27;100025.97;;;3.03;100.00
11830;BME280;5972;42.134;24.718;2023-12-20T01:47:54;100024.69;;;3.00;100.00
11830;BME280;5972;42.134;24.718;2023-12-20T01:50:22;100003.75;;;2.78;100.00
11830;BME280;5972;42.134;24.718;2023-12-20T01:52:49;100013.28;;;2.89;100.00
11830;BME280;5972;42.134;24.718;2023-12-20T01:55:18;100017.03;;;2.88;100.00
11830;BME280;5972;42.134;24.718;2023-12-20T01:57:46;100005.59;;;2.83;100.00
11830;BME280;5972;42.134;24.718;2023-12-20T02:00:15;100005.31;;;2.79;100.00
11830;BME280;5972;42.134;24.718;2023-12-20T02:02:43;99999.53;;;2.72;100.00
11830;BME280;5972;42.134;24.718;2023-12-20T02:05:12;99974.28;;;2.55;100.00
11830;BME280;5972;42.134;24.718;2023-12-20T02:07:39;99996.84;;;2.72;100.00
11830;BME280;5972;42.134;24.718;2023-12-20T02:10:07;99992.81;;;2.75;100.00
11830;BME280;5972;42.134;24.718;2023-12-20T02:12:34;99988.34;;;2.65;100.00
11830;BME280;5972;42.134;24.718;2023-12-20T02:15:01;99983.06;;;2.60;100.00
11830;BME280;5972;42.134;24.718;2023-12-20T02:17:31;99989.47;;;2.59;100.00
11830;BME280;5972;42.134;24.718;2023-12-20T02:19:58;99980.38;;;2.60;100.00
11830;BME280;5972;42.134;24.718;2023-12-20T02:22:26;99972.72;;;2.48;100.00
11830;BME280;5972;42.134;24.718;2023-12-20T02:24:53;99974.03;;;2.51;100.00
11830;BME280;5972;42.134;24.718;2023-12-20T02:27:22;99978.34;;;2.47;100.00
11830;BME280;5972;42.134;24.718;2023-12-20T02:29:50;99975.16;;;2.45;100.00
11830;BME280;5972;42.134;24.718;2023-12-20T02:32:18;99966.06;;;2.46;100.00
11830;BME280;5972;42.134;24.718;2023-12-20T02:34:46;99970.84;;;2.49;100.00
11830;BME280;5972;42.134;24.718;2023-12-20T02:37:14;99967.94;;;2.45;100.00
11830;BME280;5972;42.134;24.718;2023-12-20T02:39:42;99970.91;;;2.44;100.00
11830;BME280;5972;42.134;24.718;2023-12-20T02:42:09;99962.44;;;2.32;100.00
11830;BME280;5972;42.134;24.718;2023-12-20T02:44:36;99971.69;;;2.44;100.00
11830;BME280;5972;42.134;24.718;2023-12-20T02:47:03;99951.16;;;2.40;100.00
11830;BME280;5972;42.134;24.718;2023-12-20T02:49:30;99950.59;;;2.43;100.00
11830;BME280;5972;42.134;24.718;2023-12-20T02:51:57;99951.69;;;2.42;100.00
11830;BME280;5972;42.134;24.718;2023-12-20T02:54:24;99951.91;;;2.45;100.00
11830;BME280;5972;42.134;24.718;2023-12-20T02:56:53;99954.84;;;2.49;100.00
11830;BME280;5972;42.134;24.718;2023-12-20T02:59:20;99948.75;;;2.43;100.00
11830;BME280;5972;42.134;24.718;2023-12-20T03:01:47;99934.63;;;2.38;100.00
11830;BME280;5972;42.134;24.718;2023-12-20T03:04:14;99944.91;;;2.55;100.00
11830;BME280;5972;42.134;24.718;2023-12-20T03:06:40;99945.72;;;2.55;100.00
11830;BME280;5972;42.134;24.718;2023-12-20T03:09:07;99937.69;;;2.55;100.00
11830;BME280;5972;42.134;24.718;2023-12-20T03:11:34;99930.78;;;2.49;100.00
11830;BME280;5972;42.134;24.718;2023-12-20T03:14:03;99935.06;;;2.50;100.00
11830;BME280;5972;42.134;24.718;2023-12-20T03:16:30;99937.44;;;2.51;100.00
11830;BME280;5972;42.134;24.718;2023-12-20T03:18:58;99933.22;;;2.45;100.00
11830;BME280;5972;42.134;24.718;2023-12-20T03:21:25;99941.22;;;2.45;100.00
11830;BME280;5972;42.134;24.718;2023-12-20T03:23:52;99931.06;;;2.47;100.00
11830;BME280;5972;42.134;24.718;2023-12-20T03:26:19;99931.59;;;2.49;100.00
11830;BME280;5972;42.134;24.718;2023-12-20T03:28:47;99907.88;;;2.43;100.00
11830;BME280;5972;42.134;24.718;2023-12-20T03:31:16;99926.44;;;2.58;100.00
11830;BME280;5972;42.134;24.718;2023-12-20T03:33:43;99923.00;;;2.53;100.00
11830;BME280;5972;42.134;24.718;2023-12-20T03:36:10;99920.59;;;2.51;100.00
11830;BME280;5972;42.134;24.718;2023-12-20T03:38:37;99917.16;;;2.50;100.00
11830;BME280;5972;42.134;24.718;2023-12-20T03:41:04;99922.16;;;2.57;100.00
11830;BME280;5972;42.134;24.718;2023-12-20T03:43:31;99918.41;;;2.58;100.00
11830;BME280;5972;42.134;24.718;2023-12-20T03:45:58;99914.69;;;2.59;100.00
11830;BME280;5972;42.134;24.718;2023-12-20T03:48:26;99916.06;;;2.51;100.00
11830;BME280;5972;42.134;24.718;2023-12-20T03:50:53;99904.13;;;2.44;100.00
11830;BME280;5972;42.134;24.718;2023-12-20T03:53:20;99928.34;;;2.53;100.00
11830;BME280;5972;42.134;24.718;2023-12-20T03:55:47;99929.47;;;2.46;100.00
11830;BME280;5972;42.134;24.718;2023-12-20T03:58:14;99927.50;;;2.28;100.00
11830;BME280;5972;42.134;24.718;2023-12-20T04:00:41;99919.59;;;2.47;100.00
11830;BME280;5972;42.134;24.718;2023-12-20T04:03:08;99923.84;;;2.48;100.00
11830;BME280;5972;42.134;24.718;2023-12-20T04:05:39;99924.44;;;2.40;100.00
11830;BME280;5972;42.134;24.718;2023-12-20T04:08:07;99911.63;;;2.42;100.00
11830;BME280;5972;42.134;24.718;2023-12-20T04:10:34;99902.31;;;2.34;100.00
11830;BME280;5972;42.134;24.718;2023-12-20T04:13:03;99904.25;;;2.29;100.00
11830;BME280;5972;42.134;24.718;2023-12-20T04:15:30;99904.53;;;2.27;100.00
11830;BME280;5972;42.134;24.718;2023-12-20T04:17:57;99911.97;;;2.30;100.00
11830;BME280;5972;42.134;24.718;2023-12-20T04:20:24;99917.31;;;2.30;100.00
11830;BME280;5972;42.134;24.718;2023-12-20T04:22:52;99906.91;;;2.29;100.00
11830;BME280;5972;42.134;24.718;2023-12-20T04:25:20;99908.72;;;2.38;100.00
11830;BME280;5972;42.134;24.718;2023-12-20T04:27:47;99905.28;;;2.33;100.00
11830;BME280;5972;42.134;24.718;2023-12-20T04:30:14;99908.50;;;2.30;100.00
11830;BME280;5972;42.134;24.718;2023-12-20T04:32:41;99905.34;;;2.28;100.00
11830;BME280;5972;42.134;24.718;2023-12-20T04:35:08;99910.41;;;2.24;100.00
11830;BME280;5972;42.134;24.718;2023-12-20T04:37:35;99853.28;;;1.91;100.00
11830;BME280;5972;42.134;24.718;2023-12-20T04:40:04;99899.28;;;2.17;100.00
11830;BME280;5972;42.134;24.718;2023-12-20T04:42:33;99895.03;;;2.16;100.00
11830;BME280;5972;42.134;24.718;2023-12-20T04:45:00;99891.88;;;2.09;100.00
11830;BME280;5972;42.134;24.718;2023-12-20T04:47:26;99887.63;;;2.03;100.00
11830;BME280;5972;42.134;24.718;2023-12-20T04:49:53;99880.38;;;2.08;100.00
11830;BME280;5972;42.134;24.718;2023-12-20T04:52:20;99883.31;;;2.07;100.00
11830;BME280;5972;42.134;24.718;2023-12-20T04:54:48;99890.25;;;2.08;100.00
11830;BME280;5972;42.134;24.718;2023-12-20T04:57:16;99882.53;;;2.06;100.00
11830;BME280;5972;42.134;24.718;2023-12-20T04:59:43;99889.75;;;2.06;100.00
11830;BME280;5972;42.134;24.718;2023-12-20T05:02:10;99886.84;;;2.02;100.00
11830;BME280;5972;42.134;24.718;2023-12-20T05:04:37;99866.44;;;1.83;100.00
11830;BME280;5972;42.134;24.718;2023-12-20T05:07:04;99860.56;;;1.81;100.00
11830;BME280;5972;42.134;24.718;2023-12-20T05:09:32;99871.47;;;1.84;100.00
11830;BME280;5972;42.134;24.718;2023-12-20T05:11:59;99862.19;;;1.82;100.00
11830;BME280;5972;42.134;24.718;2023-12-20T05:14:27;99870.13;;;1.87;100.00
11830;BME280;5972;42.134;24.718;2023-12-20T05:16:54;99863.78;;;1.83;100.00
11830;BME280;5972;42.134;24.718;2023-12-20T05:19:22;99856.59;;;1.78;100.00
11830;BME280;5972;42.134;24.718;2023-12-20T05:21:49;99862.44;;;1.80;100.00
11830;BME280;5972;42.134;24.718;2023-12-20T05:24:16;99854.22;;;1.77;100.00
11830;BME280;5972;42.134;24.718;2023-12-20T05:26:43;99866.97;;;1.80;100.00
11830;BME280;5972;42.134;24.718;2023-12-20T05:29:10;99858.44;;;1.83;100.00
11830;BME280;5972;42.134;24.718;2023-12-20T05:31:39;99850.69;;;1.81;100.00
11830;BME280;5972;42.134;24.718;2023-12-20T05:34:06;99855.25;;;1.81;100.00
11830;BME280;5972;42.134;24.718;2023-12-20T05:36:33;99850.13;;;1.84;100.00
11830;BME280;5972;42.134;24.718;2023-12-20T05:39:00;99833.69;;;1.72;100.00
11830;BME280;5972;42.134;24.718;2023-12-20T05:41:29;99845.94;;;1.78;100.00
11830;BME280;5972;42.134;24.718;2023-12-20T05:43:56;99839.22;;;1.81;100.00
11830;BME280;5972;42.134;24.718;2023-12-20T05:46:23;99841.06;;;1.85;100.00
11830;BME280;5972;42.134;24.718;2023-12-20T05:48:52;99843.19;;;1.88;100.00
11830;BME280;5972;42.134;24.718;2023-12-20T05:51:19;99841.84;;;1.86;100.00
11830;BME280;5972;42.134;24.718;2023-12-20T05:53:46;99834.88;;;1.90;100.00
11830;BME280;5972;42.134;24.718;2023-12-20T05:56:15;99835.19;;;1.88;100.00
11830;BME280;5972;42.134;24.718;2023-12-20T05:58:42;99835.22;;;1.83;100.00
11830;BME280;5972;42.134;24.718;2023-12-20T06:01:09;99833.06;;;1.85;100.00
11830;BME280;5972;42.134;24.718;2023-12-20T06:03:36;99823.22;;;1.81;100.00
11830;BME280;5972;42.134;24.718;2023-12-20T06:06:07;99798.88;;;1.53;100.00
11830;BME280;5972;42.134;24.718;2023-12-20T06:08:34;99830.91;;;1.87;100.00
11830;BME280;5972;42.134;24.718;2023-12-20T06:11:01;99830.38;;;1.85;100.00
11830;BME280;5972;42.134;24.718;2023-12-20T06:13:28;99842.06;;;1.94;100.00
11830;BME280;5972;42.134;24.718;2023-12-20T06:15:54;99837.28;;;1.91;100.00
11830;BME280;5972;42.134;24.718;2023-12-20T06:18:22;99840.75;;;1.92;100.00
11830;BME280;5972;42.134;24.718;2023-12-20T06:20:50;99829.53;;;1.90;100.00
11830;BME280;5972;42.134;24.718;2023-12-20T06:23:19;99841.41;;;2.07;100.00
11830;BME280;5972;42.134;24.718;2023-12-20T06:25:46;99839.06;;;2.06;100.00
11830;BME280;5972;42.134;24.718;2023-12-20T06:28:13;99834.75;;;2.10;100.00
11830;BME280;5972;42.134;24.718;2023-12-20T06:30:41;99825.88;;;2.15;100.00
11830;BME280;5972;42.134;24.718;2023-12-20T06:33:07;99821.88;;;2.12;100.00
11830;BME280;5972;42.134;24.718;2023-12-20T06:35:35;99821.31;;;2.20;100.00
11830;BME280;5972;42.134;24.718;2023-12-20T06:38:03;99826.31;;;2.27;100.00
11830;BME280;5972;42.134;24.718;2023-12-20T06:40:32;99810.44;;;2.12;100.00
11830;BME280;5972;42.134;24.718;2023-12-20T06:42:59;99836.63;;;2.38;100.00
11830;BME280;5972;42.134;24.718;2023-12-20T06:45:26;99834.97;;;2.42;100.00
11830;BME280;5972;42.134;24.718;2023-12-20T06:47:53;99827.50;;;2.44;100.00
11830;BME280;5972;42.134;24.718;2023-12-20T06:50:20;99819.41;;;2.49;100.00
11830;BME280;5972;42.134;24.718;2023-12-20T06:52:47;99819.41;;;2.49;100.00
11830;BME280;5972;42.134;24.718;2023-12-20T06:55:14;99826.31;;;2.56;100.00
11830;BME280;5972;42.134;24.718;2023-12-20T06:57:44;99813.91;;;2.65;100.00
11830;BME280;5972;42.134;24.718;2023-12-20T07:00:12;99819.19;;;2.70;100.00
11830;BME280;5972;42.134;24.718;2023-12-20T07:02:39;99809.53;;;2.74;100.00
11830;BME280;5972;42.134;24.718;2023-12-20T07:05:06;99821.69;;;2.85;100.00
11830;BME280;5972;42.134;24.718;2023-12-20T07:07:33;99811.78;;;2.85;100.00
11830;BME280;5972;42.134;24.718;2023-12-20T07:10:00;99792.59;;;2.83;100.00
11830;BME280;5972;42.134;24.718;2023-12-20T07:12:27;99798.19;;;3.06;100.00
11830;BME280;5972;42.134;24.718;2023-12-20T07:14:56;99801.50;;;2.98;100.00
11830;BME280;5972;42.134;24.718;2023-12-20T07:17:23;99799.72;;;3.12;100.00
11830;BME280;5972;42.134;24.718;2023-12-20T07:19:50;99795.84;;;3.23;100.00
11830;BME280;5972;42.134;24.718;2023-12-20T07:22:17;99796.13;;;3.21;100.00
11830;BME280;5972;42.134;24.718;2023-12-20T07:24:44;99792.28;;;3.27;100.00
11830;BME280;5972;42.134;24.718;2023-12-20T07:27:11;99785.91;;;3.42;100.00
11830;BME280;5972;42.134;24.718;2023-12-20T07:29:38;99790.31;;;4.03;100.00
11830;BME280;5972;42.134;24.718;2023-12-20T07:32:07;99764.41;;;5.35;100.00
11830;BME280;5972;42.134;24.718;2023-12-20T07:34:34;99792.78;;;6.87;100.00
11830;BME280;5972;42.134;24.718;2023-12-20T07:37:01;99790.00;;;8.04;100.00
11830;BME280;5972;42.134;24.718;2023-12-20T07:39:28;99792.88;;;8.92;100.00
11830;BME280;5972;42.134;24.718;2023-12-20T07:41:55;99797.78;;;9.48;100.00
11830;BME280;5972;42.134;24.718;2023-12-20T07:44:22;99787.44;;;10.37;100.00
11830;BME280;5972;42.134;24.718;2023-12-20T07:46:48;99783.97;;;11.09;92.01
11830;BME280;5972;42.134;24.718;2023-12-20T07:49:17;99752.88;;;11.71;77.06
11830;BME280;5972;42.134;24.718;2023-12-20T07:51:45;99753.00;;;12.18;73.86
11830;BME280;5972;42.134;24.718;2023-12-20T07:54:12;99753.53;;;12.55;67.43
11830;BME280;5972;42.134;24.718;2023-12-20T07:56:39;99753.53;;;12.86;63.36
11830;BME280;5972;42.134;24.718;2023-12-20T07:59:06;99725.09;;;12.65;62.79
11830;BME280;5972;42.134;24.718;2023-12-20T08:01:33;99739.19;;;13.05;61.63
11830;BME280;5972;42.134;24.718;2023-12-20T08:04:00;99749.84;;;12.79;60.58
11830;BME280;5972;42.134;24.718;2023-12-20T08:06:29;99748.63;;;12.14;63.47
11830;BME280;5972;42.134;24.718;2023-12-20T08:08:56;99753.00;;;12.65;62.27
11830;BME280;5972;42.134;24.718;2023-12-20T08:11:23;99740.59;;;12.48;61.33
11830;BME280;5972;42.134;24.718;2023-12-20T08:13:50;99734.91;;;12.38;62.92
11830;BME280;5972;42.134;24.718;2023-12-20T08:16:17;99729.75;;;12.64;61.50
11830;BME280;5972;42.134;24.718;2023-12-20T08:18:44;99737.72;;;12.57;60.71
11830;BME280;5972;42.134;24.718;2023-12-20T08:21:11;99737.06;;;12.17;63.73
11830;BME280;5972;42.134;24.718;2023-12-20T08:23:39;99735.78;;;12.42;65.02
11830;BME280;5972;42.134;24.718;2023-12-20T08:26:07;99744.00;;;12.61;62.27
11830;BME280;5972;42.134;24.718;2023-12-20T08:28:34;99736.09;;;12.72;62.01
11830;BME280;5972;42.134;24.718;2023-12-20T08:31:03;99714.84;;;12.58;62.09
11830;BME280;5972;42.134;24.718;2023-12-20T08:33:30;99716.44;;;12.59;64.10
11830;BME280;5972;42.134;24.718;2023-12-20T08:35:57;99714.78;;;12.89;62.58
11830;BME280;5972;42.134;24.718;2023-12-20T08:38:24;99712.34;;;12.84;62.66
11830;BME280;5972;42.134;24.718;2023-12-20T08:40:53;99706.78;;;11.43;68.51
11830;BME280;5972;42.134;24.718;2023-12-20T08:43:20;99714.19;;;10.66;76.31
11830;BME280;5972;42.134;24.718;2023-12-20T08:45:47;99707.31;;;10.45;82.43
11830;BME280;5972;42.134;24.718;2023-12-20T08:48:14;99711.19;;;10.11;87.24
11830;BME280;5972;42.134;24.718;2023-12-20T08:50:41;99696.13;;;9.77;90.61
11830;BME280;5972;42.134;24.718;2023-12-20T08:53:08;99683.94;;;9.38;96.84
11830;BME280;5972;42.134;24.718;2023-12-20T08:55:34;99683.78;;;9.22;100.00
11830;BME280;5972;42.134;24.718;2023-12-20T08:58:03;99674.84;;;9.63;100.00
11830;BME280;5972;42.134;24.718;2023-12-20T09:00:32;99680.63;;;9.98;97.97
11830;BME280;5972;42.134;24.718;2023-12-20T09:02:59;99646.50;;;9.93;93.14
11830;BME280;5972;42.134;24.718;2023-12-20T09:05:26;99651.47;;;10.16;92.10
11830;BME280;5972;42.134;24.718;2023-12-20T09:07:53;99658.19;;;10.30;87.16
11830;BME280;5972;42.134;24.718;2023-12-20T09:10:20;99655.81;;;10.41;87.48
11830;BME280;5972;42.134;24.718;2023-12-20T09:12:49;99625.38;;;10.44;84.93
11830;BME280;5972;42.134;24.718;2023-12-20T09:15:17;99626.25;;;10.48;82.34
11830;BME280;5972;42.134;24.718;2023-12-20T09:17:44;99650.50;;;10.08;83.65
11830;BME280;5972;42.134;24.718;2023-12-20T09:20:11;99604.81;;;9.58;87.73
11830;BME280;5972;42.134;24.718;2023-12-20T09:22:39;99628.22;;;9.66;91.06
11830;BME280;5972;42.134;24.718;2023-12-20T09:25:08;99627.66;;;10.18;87.79
11830;BME280;5972;42.134;24.718;2023-12-20T09:27:35;99608.56;;;11.31;79.90
11830;BME280;5972;42.134;24.718;2023-12-20T09:30:03;99592.53;;;12.16;70.09
11830;BME280;5972;42.134;24.718;2023-12-20T09:32:32;99614.47;;;13.16;62.66
11830;BME280;5972;42.134;24.718;2023-12-20T09:34:59;99609.69;;;13.48;59.52
11830;BME280;5972;42.134;24.718;2023-12-20T09:37:26;99614.19;;;14.31;56.12
11830;BME280;5972;42.134;24.718;2023-12-20T09:39:54;99594.94;;;15.36;50.24
11830;BME280;5972;42.134;24.718;2023-12-20T09:42:25;99595.09;;;16.46;47.87
11830;BME280;5972;42.134;24.718;2023-12-20T09:44:58;99582.91;;;17.01;44.43
11830;BME280;5972;42.134;24.718;2023-12-20T09:47:28;99571.53;;;16.85;45.48
11830;BME280;5972;42.134;24.718;2023-12-20T09:49:57;99558.47;;;17.76;42.84
11830;BME280;5972;42.134;24.718;2023-12-20T09:52:24;99574.44;;;18.48;41.69
11830;BME280;5972;42.134;24.718;2023-12-20T09:54:52;99566.09;;;18.94;40.49
11830;BME280;5972;42.134;24.718;2023-12-20T09:57:21;99560.03;;;18.05;41.25
11830;BME280;5972;42.134;24.718;2023-12-20T09:59:48;99538.94;;;17.99;41.16
11830;BME280;5972;42.134;24.718;2023-12-20T10:02:17;99550.16;;;18.64;40.27
11830;BME280;5972;42.134;24.718;2023-12-20T10:04:48;99544.78;;;18.01;40.99
11830;BME280;5972;42.134;24.718;2023-12-20T10:07:16;99538.16;;;17.70;41.79
11830;BME280;5972;42.134;24.718;2023-12-20T10:09:44;99537.31;;;17.41;42.42
11830;BME280;5972;42.134;24.718;2023-12-20T10:12:12;99529.06;;;17.23;43.53
11830;BME280;5972;42.134;24.718;2023-12-20T10:14:39;99512.66;;;17.23;43.91
11830;BME280;5972;42.134;24.718;2023-12-20T10:17:06;99502.94;;;17.93;41.86
11830;BME280;5972;42.134;24.718;2023-12-20T10:19:33;99521.31;;;17.96;41.28
11830;BME280;5972;42.134;24.718;2023-12-20T10:22:00;99510.78;;;17.63;42.00
11830;BME280;5972;42.134;24.718;2023-12-20T10:24:30;99502.84;;;16.97;42.80
11830;BME280;5972;42.134;24.718;2023-12-20T10:27:04;99501.69;;;16.15;44.30
11830;BME280;5972;42.134;24.718;2023-12-20T10:29:34;99497.09;;;15.28;46.22
11830;BME280;5972;42.134;24.718;2023-12-20T10:32:21;99477.97;;;15.21;46.97
11830;BME280;5972;42.134;24.718;2023-12-20T10:34:49;99492.91;;;15.37;46.98
11830;BME280;5972;42.134;24.718;2023-12-20T10:37:16;99486.63;;;14.93;47.61
11830;BME280;5972;42.134;24.718;2023-12-20T10:39:49;99481.25;;;14.67;48.55
11830;BME280;5972;42.134;24.718;2023-12-20T10:42:17;99454.94;;;14.44;49.93
11830;BME280;5972;42.134;24.718;2023-12-20T10:44:44;99469.56;;;14.99;48.38
11830;BME280;5972;42.134;24.718;2023-12-20T10:47:12;99457.91;;;15.47;46.71
11830;BME280;5972;42.134;24.718;2023-12-20T10:49:40;99420.72;;;15.72;46.01
11830;BME280;5972;42.134;24.718;2023-12-20T10:52:08;99446.38;;;15.60;46.08
11830;BME280;5972;42.134;24.718;2023-12-20T10:54:35;99440.53;;;15.14;47.13
11830;BME280;5972;42.134;24.718;2023-12-20T10:57:05;99440.78;;;15.02;47.25
11830;BME280;5972;42.134;24.718;2023-12-20T10:59:33;99434.41;;;14.50;48.01
11830;BME280;5972;42.134;24.718;2023-12-20T11:02:03;99426.78;;;13.73;50.28
11830;BME280;5972;42.134;24.718;2023-12-20T11:04:36;99426.47;;;13.52;51.57
11830;BME280;5972;42.134;24.718;2023-12-20T11:07:15;99415.56;;;13.03;53.64
11830;BME280;5972;42.134;24.718;2023-12-20T11:09:49;99421.50;;;12.89;55.40
11830;BME280;5972;42.134;24.718;2023-12-20T11:12:31;99411.94;;;13.18;55.35
11830;BME280;5972;42.134;24.718;2023-12-20T11:14:59;99416.56;;;12.95;56.14
11830;BME280;5972;42.134;24.718;2023-12-20T11:17:29;99382.66;;;12.85;55.58
11830;BME280;5972;42.134;24.718;2023-12-20T11:20:06;99382.81;;;12.73;56.92
11830;BME280;5972;42.134;24.718;2023-12-20T11:22:35;99399.34;;;13.10;57.65
11830;BME280;5972;42.134;24.718;2023-12-20T11:25:05;99389.94;;;13.27;55.95
11830;BME280;5972;42.134;24.718;2023-12-20T11:27:35;99382.78;;;13.15;55.83
11830;BME280;5972;42.134;24.718;2023-12-20T11:30:03;99388.97;;;12.70;57.26
11830;BME280;5972;42.134;24.718;2023-12-20T11:32:34;99384.03;;;12.34;58.60
11830;BME280;5972;42.134;24.718;2023-12-20T11:35:01;99381.53;;;12.67;58.36
11830;BME280;5972;42.134;24.718;2023-12-20T11:37:42;99363.09;;;12.54;58.55
11830;BME280;5972;42.134;24.718;2023-12-20T11:40:12;99374.72;;;12.54;59.86
11830;BME280;5972;42.134;24.718;2023-12-20T11:42:42;99360.13;;;12.62;59.32
11830;BME280;5972;42.134;24.718;2023-12-20T11:45:10;99370.25;;;12.65;59.53
11830;BME280;5972;42.134;24.718;2023-12-20T11:47:40;99357.19;;;12.29;60.34
11830;BME280;5972;42.134;24.718;2023-12-20T11:50:08;99355.13;;;11.84;63.52
11830;BME280;5972;42.134;24.718;2023-12-20T11:52:36;99355.78;;;11.96;64.08
11830;BME280;5972;42.134;24.718;2023-12-20T11:55:03;99351.34;;;11.88;64.59
11830;BME280;5972;42.134;24.718;2023-12-20T11:57:30;99324.19;;;11.69;65.78
11830;BME280;5972;42.134;24.718;2023-12-20T11:59:59;99322.09;;;11.97;65.62
11830;BME280;5972;42.134;24.718;2023-12-20T12:02:26;99324.19;;;11.69;67.77
11830;BME280;5972;42.134;24.718;2023-12-20T12:04:53;99304.78;;;11.48;67.93
11830;BME280;5972;42.134;24.718;2023-12-20T12:07:21;99322.81;;;11.40;70.05
11830;BME280;5972;42.134;24.718;2023-12-20T12:09:48;99316.03;;;11.50;69.87
11830;BME280;5972;42.134;24.718;2023-12-20T12:12:15;99313.66;;;11.64;68.40
11830;BME280;5972;42.134;24.718;2023-12-20T12:14:42;99306.19;;;11.42;69.05
11830;BME280;5972;42.134;24.718;2023-12-20T12:17:12;99304.50;;;11.18;69.78
11830;BME280;5972;42.134;24.718;2023-12-20T12:19:39;99303.78;;;11.21;70.94
11830;BME280;5972;42.134;24.718;2023-12-20T12:22:06;99301.88;;;11.21;70.07
11830;BME280;5972;42.134;24.718;2023-12-20T12:24:34;99295.66;;;11.37;69.04
11830;BME280;5972;42.134;24.718;2023-12-20T12:27:01;99292.78;;;11.49;68.99
11830;BME280;5972;42.134;24.718;2023-12-20T12:29:28;99287.66;;;11.44;69.69
11830;BME280;5972;42.134;24.718;2023-12-20T12:31:55;99294.19;;;11.58;69.87
11830;BME280;5972;42.134;24.718;2023-12-20T12:34:24;99286.84;;;11.59;69.43
11830;BME280;5972;42.134;24.718;2023-12-20T12:36:52;99284.69;;;11.68;69.47
11830;BME280;5972;42.134;24.718;2023-12-20T12:39:19;99277.47;;;11.56;69.77
11830;BME280;5972;42.134;24.718;2023-12-20T12:41:46;99281.63;;;11.70;74.85
11830;BME280;5972;42.134;24.718;2023-12-20T12:44:13;99276.41;;;11.61;76.94
11830;BME280;5972;42.134;24.718;2023-12-20T12:46:40;99278.69;;;11.59;78.19
11830;BME280;5972;42.134;24.718;2023-12-20T12:49:07;99277.19;;;11.61;77.99
11830;BME280;5972;42.134;24.718;2023-12-20T12:51:36;99270.91;;;11.57;76.65
11830;BME280;5972;42.134;24.718;2023-12-20T12:54:03;99274.97;;;11.67;77.06
11830;BME280;5972;42.134;24.718;2023-12-20T12:56:30;99273.00;;;11.64;78.14
11830;BME280;5972;42.134;24.718;2023-12-20T12:58:58;99265.16;;;11.59;77.02
11830;BME280;5972;42.134;24.718;2023-12-20T13:01:25;99266.34;;;11.61;78.54
11830;BME280;5972;42.134;24.718;2023-12-20T13:03:52;99260.94;;;11.61;78.02
11830;BME280;5972;42.134;24.718;2023-12-20T13:06:19;99264.66;;;11.53;78.45